Time;durP1;ratioP1;P1;durP2;ratioP2;P2;SDS_P1;SDS_P2;PMS_P1;PMS_P2;Temp;Humidity;BMP_temperature;BMP_pressure;BME280_temperature;BME280_humidity;BME280_pressure;Samples;Min_cycle;Max_cycle;Signal;HPM_P1;HPM_P2
2021/09/02 00:01:30;;;;;;;11.82;2.85;;;18.50;79.70;;;;;;5112661;28;20494;-63
2021/09/02 00:03:57;;;;;;;10.65;2.42;;;18.50;82.10;;;;;;5113297;28;20118;-64
2021/09/02 00:06:25;;;;;;;6.18;2.97;;;18.60;79.90;;;;;;5112720;28;20031;-61
2021/09/02 00:08:52;;;;;;;8.15;2.65;;;18.60;81.10;;;;;;5113292;28;20044;-62
2021/09/02 00:11:21;;;;;;;7.47;2.58;;;18.60;81.50;;;;;;5113125;28;20401;-63
2021/09/02 00:13:48;;;;;;;5.45;2.78;;;18.70;83.20;;;;;;5113153;28;20020;-63
2021/09/02 00:16:16;;;;;;;4.47;2.75;;;18.70;79.40;;;;;;5112233;28;20347;-61
2021/09/02 00:18:43;;;;;;;9.65;2.60;;;18.70;80.50;;;;;;5102643;28;20027;-61
2021/09/02 00:21:11;;;;;;;8.20;3.20;;;18.70;82.40;;;;;;5108525;28;20042;-61
2021/09/02 00:23:57;;;;;;;6.45;2.35;;;18.70;82.60;;;;;;5111603;28;20024;-60
2021/09/02 00:26:25;;;;;;;7.57;2.67;;;18.80;81.30;;;;;;5113197;28;20035;-65
2021/09/02 00:28:52;;;;;;;7.18;2.70;;;18.90;82.00;;;;;;5113496;28;20022;-59
2021/09/02 00:31:20;;;;;;;7.13;2.85;;;19.00;81.60;;;;;;5113341;28;20031;-61
2021/09/02 00:33:47;;;;;;;6.15;2.05;;;19.10;82.10;;;;;;5112799;28;20020;-66
2021/09/02 00:36:15;;;;;;;7.80;2.63;;;19.10;78.60;;;;;;5112510;28;20035;-63
2021/09/02 00:38:42;;;;;;;4.22;2.17;;;19.30;82.10;;;;;;5112419;28;20024;-61
2021/09/02 00:41:17;;;;;;;9.23;2.65;;;19.30;77.10;;;;;;5113099;28;20055;-62
2021/09/02 00:43:44;;;;;;;9.48;2.42;;;19.40;82.90;;;;;;5113237;28;20509;-65
2021/09/02 00:46:16;;;;;;;5.90;2.25;;;19.50;80.40;;;;;;5111922;28;20115;-59
2021/09/02 00:48:46;;;;;;;6.28;2.53;;;19.60;81.30;;;;;;5111505;28;20031;-61
2021/09/02 00:51:18;;;;;;;9.00;2.40;;;19.60;81.30;;;;;;5113193;28;20036;-61
2021/09/02 00:53:54;;;;;;;10.90;2.65;;;19.70;79.00;;;;;;5094658;28;20066;-63
2021/09/02 00:56:36;;;;;;;8.70;2.50;;;19.70;79.50;;;;;;5112079;28;20115;-63
2021/09/02 00:59:03;;;;;;;8.65;2.70;;;19.80;78.90;;;;;;5112445;28;20031;-69
2021/09/02 01:01:31;;;;;;;13.00;2.58;;;19.80;79.30;;;;;;5111595;28;20028;-63
2021/09/02 01:04:03;;;;;;;5.38;2.80;;;19.90;78.10;;;;;;5112488;28;20060;-63
2021/09/02 01:06:31;;;;;;;27.33;4.22;;;19.90;79.70;;;;;;5076913;28;20028;-70
2021/09/02 01:08:58;;;;;;;40.13;4.40;;;19.90;79.40;;;;;;5111920;28;20047;-66
2021/09/02 01:11:26;;;;;;;33.90;5.20;;;20.00;77.40;;;;;;5111800;28;20470;-66
2021/09/02 01:13:53;;;;;;;28.92;4.20;;;20.00;77.50;;;;;;5111837;28;20026;-65
2021/09/02 01:16:20;;;;;;;44.45;6.35;;;20.10;77.90;;;;;;5111195;28;20508;-59
2021/09/02 01:18:51;;;;;;;24.25;4.53;;;20.00;76.50;;;;;;5112177;28;20030;-59
2021/09/02 01:21:18;;;;;;;21.33;3.50;;;20.20;77.90;;;;;;5099055;28;20067;-59
2021/09/02 01:23:46;;;;;;;9.68;2.95;;;20.20;76.70;;;;;;5110326;28;20728;-65
2021/09/02 01:26:16;;;;;;;36.72;3.25;;;20.30;78.80;;;;;;5101948;28;20163;-67
2021/09/02 01:28:44;;;;;;;31.48;3.85;;;20.20;77.70;;;;;;5103711;28;20012;-67
2021/09/02 01:31:17;;;;;;;24.80;3.30;;;20.20;77.10;;;;;;5103909;28;20051;-65
2021/09/02 01:33:46;;;;;;;13.15;2.80;;;20.30;78.20;;;;;;5110615;28;20023;-62
2021/09/02 01:36:14;;;;;;;24.95;4.22;;;20.40;79.80;;;;;;5100260;28;20473;-63
2021/09/02 01:38:41;;;;;;;15.00;2.90;;;20.40;78.80;;;;;;5105396;28;20036;-64
2021/09/02 01:41:09;;;;;;;20.55;3.30;;;20.50;76.40;;;;;;5088562;28;20127;-71
2021/09/02 01:43:37;;;;;;;10.32;2.88;;;20.50;79.40;;;;;;5109890;28;20844;-62
2021/09/02 01:46:05;;;;;;;12.90;2.85;;;20.60;77.60;;;;;;5103319;28;20432;-61
2021/09/02 01:48:37;;;;;;;32.97;4.05;;;20.70;79.40;;;;;;5110219;28;20080;-70
2021/09/02 01:51:04;;;;;;;;;;;20.70;77.70;;;;;;5102127;28;20051;-70
2021/09/02 01:53:31;;;;;;;13.95;3.20;;;20.70;79.30;;;;;;5109764;28;21346;-67
2021/09/02 01:56:02;;;;;;;13.95;2.80;;;20.70;78.90;;;;;;5084511;28;20308;-70
2021/09/02 01:58:31;;;;;;;10.07;2.50;;;20.80;78.10;;;;;;5107012;28;20076;-68
2021/09/02 02:00:59;;;;;;;15.98;2.83;;;20.70;77.70;;;;;;5102066;28;20106;-68
2021/09/02 02:03:26;;;;;;;15.23;3.10;;;20.70;78.20;;;;;;5107635;28;20024;-67
2021/09/02 02:05:53;;;;;;;12.95;3.22;;;20.80;78.20;;;;;;5098957;28;20436;-71
2021/09/02 02:08:24;;;;;;;10.48;3.10;;;20.80;79.40;;;;;;5112727;28;20549;-62
2021/09/02 02:10:52;;;;;;;7.03;2.08;;;20.90;77.40;;;;;;5109456;28;20106;-72
2021/09/02 02:13:19;;;;;;;11.23;2.65;;;20.90;77.40;;;;;;5105036;28;20027;-64
2021/09/02 02:15:47;;;;;;;10.10;2.80;;;20.90;77.40;;;;;;5103014;28;20416;-67
2021/09/02 02:18:15;;;;;;;13.32;2.85;;;20.90;77.60;;;;;;5089310;28;20100;-66
2021/09/02 02:20:43;;;;;;;12.45;2.42;;;20.90;78.00;;;;;;5109069;28;20038;-68
2021/09/02 02:23:10;;;;;;;14.40;2.63;;;20.90;78.50;;;;;;5105575;28;20077;-71
2021/09/02 02:25:38;;;;;;;20.17;2.90;;;20.90;78.50;;;;;;5088608;28;20362;-69
2021/09/02 02:28:08;;;;;;;12.77;2.30;;;20.90;77.60;;;;;;5086478;28;20555;-61
2021/09/02 02:30:45;;;;;;;9.25;2.13;;;21.00;77.20;;;;;;5102160;28;20050;-60
2021/09/02 02:33:12;;;;;;;11.07;2.97;;;20.90;79.00;;;;;;5106039;28;20027;-63
2021/09/02 02:35:40;;;;;;;16.33;2.60;;;21.00;77.90;;;;;;5100765;28;20024;-65
2021/09/02 02:38:08;;;;;;;11.85;2.97;;;21.00;77.90;;;;;;5108321;28;20040;-65
2021/09/02 02:40:36;;;;;;;10.10;2.58;;;20.90;77.50;;;;;;5105106;28;20568;-67
2021/09/02 02:43:04;;;;;;;10.23;2.17;;;20.90;79.00;;;;;;5105372;28;20040;-67
2021/09/02 02:45:32;;;;;;;13.18;2.53;;;20.90;78.40;;;;;;5099540;28;20387;-67
2021/09/02 02:47:59;;;;;;;16.60;2.47;;;21.00;79.50;;;;;;5103437;28;20031;-64
2021/09/02 02:50:27;;;;;;;13.35;2.53;;;21.00;78.40;;;;;;5109213;28;20103;-63
2021/09/02 02:52:55;;;;;;;8.52;3.03;;;21.10;78.20;;;;;;5100941;28;20030;-66
2021/09/02 02:55:22;;;;;;;12.98;2.50;;;21.10;78.30;;;;;;5108576;28;20042;-62
2021/09/02 02:57:56;;;;;;;10.23;2.03;;;21.20;77.90;;;;;;5081091;28;20581;-63
2021/09/02 03:00:58;;;;;;;6.47;2.30;;;21.10;77.90;;;;;;5111630;28;20027;-63
2021/09/02 03:03:38;;;;;;;9.98;3.25;;;21.10;77.80;;;;;;5103909;28;20032;-65
2021/09/02 03:06:43;;;;;;;;;;;;;;;;;;;;;
2021/09/02 03:09:15;;;;;;;11.70;1.85;;;21.20;77.80;;;;;;5100598;28;20039;-66
2021/09/02 03:11:46;;;;;;;8.45;2.72;;;21.20;78.90;;;;;;5107627;28;20020;-63
2021/09/02 03:14:14;;;;;;;5.18;2.05;;;21.20;77.40;;;;;;5090483;28;20028;-63
2021/09/02 03:16:41;;;;;;;11.55;2.28;;;21.20;78.30;;;;;;5104346;28;20505;-64
2021/09/02 03:19:09;;;;;;;6.22;1.60;;;21.10;77.90;;;;;;5113070;28;20025;-65
2021/09/02 03:21:45;;;;;;;7.13;2.55;;;21.00;78.60;;;;;;5110906;28;20027;-57
2021/09/02 03:24:12;;;;;;;6.28;1.75;;;21.10;77.90;;;;;;5114508;28;20032;-58
2021/09/02 03:26:40;;;;;;;11.60;2.40;;;21.10;78.50;;;;;;5104943;28;20119;-63
2021/09/02 03:29:07;;;;;;;12.52;2.63;;;21.10;79.20;;;;;;5112869;28;20019;-65
2021/09/02 03:31:35;;;;;;;10.25;2.35;;;21.10;78.90;;;;;;5108468;28;20019;-65
2021/09/02 03:34:02;;;;;;;15.10;2.65;;;21.10;78.40;;;;;;5112816;28;20035;-59
2021/09/02 03:36:30;;;;;;;7.22;2.28;;;21.10;79.00;;;;;;5102825;28;20027;-62
2021/09/02 03:38:57;;;;;;;14.32;2.15;;;21.10;79.30;;;;;;5111238;28;20020;-67
2021/09/02 03:41:25;;;;;;;11.82;2.72;;;21.10;78.10;;;;;;5106743;28;20039;-65
2021/09/02 03:43:52;;;;;;;8.18;2.40;;;21.10;79.50;;;;;;5113962;28;20024;-65
2021/09/02 03:46:20;;;;;;;11.07;1.95;;;21.10;78.70;;;;;;5103686;28;20020;-66
2021/09/02 03:48:47;;;;;;;13.55;2.28;;;21.10;79.00;;;;;;5112690;28;20027;-67
2021/09/02 03:51:14;;;;;;;9.63;2.25;;;21.10;79.30;;;;;;5111410;28;20553;-67
2021/09/02 03:53:42;;;;;;;6.90;2.45;;;21.00;79.30;;;;;;5104649;28;20035;-69
2021/09/02 03:56:09;;;;;;;15.05;2.75;;;21.10;79.20;;;;;;5105395;28;20458;-69
2021/09/02 03:58:40;;;;;;;14.95;4.20;;;21.00;78.80;;;;;;5105445;28;20027;-63
2021/09/02 04:01:11;;;;;;;5.28;2.03;;;21.10;79.40;;;;;;5112257;28;20020;-63
2021/09/02 04:03:38;;;;;;;10.48;2.28;;;21.00;78.70;;;;;;5110977;28;20055;-64
2021/09/02 04:06:05;;;;;;;8.25;2.13;;;20.90;79.40;;;;;;5105430;28;20036;-64
2021/09/02 04:08:33;;;;;;;7.28;2.65;;;20.90;78.90;;;;;;5112107;28;20015;-68
2021/09/02 04:11:00;;;;;;;8.13;2.30;;;21.00;79.30;;;;;;5111936;28;20024;-62
2021/09/02 04:13:28;;;;;;;5.80;2.10;;;21.10;79.10;;;;;;5109626;28;20084;-68
2021/09/02 04:15:56;;;;;;;9.00;2.53;;;21.10;79.10;;;;;;5105276;28;20660;-61
2021/09/02 04:18:23;;;;;;;7.78;2.35;;;21.20;79.20;;;;;;5092743;28;20111;-61
2021/09/02 04:20:51;;;;;;;11.73;2.42;;;21.10;79.10;;;;;;5108812;28;20516;-64
2021/09/02 04:23:19;;;;;;;11.23;2.33;;;21.20;79.00;;;;;;5105446;28;20477;-63
2021/09/02 04:25:50;;;;;;;7.70;2.70;;;21.20;79.20;;;;;;5099058;28;20035;-59
2021/09/02 04:28:17;;;;;;;7.35;2.15;;;21.30;79.50;;;;;;5107141;28;20043;-63
2021/09/02 04:31:55;;;;;;;8.48;2.65;;;21.30;79.00;;;;;;5108971;28;20023;-64
2021/09/02 04:35:03;;;;;;;9.98;2.72;;;21.40;78.40;;;;;;5027796;28;20040;-66
2021/09/02 04:37:38;;;;;;;8.50;2.40;;;21.40;78.50;;;;;;5025366;28;20029;-64
2021/09/02 04:40:07;;;;;;;6.32;2.72;;;21.40;78.20;;;;;;5107199;28;20027;-62
2021/09/02 04:42:39;;;;;;;8.50;2.25;;;21.40;78.20;;;;;;5106387;28;20104;-64
2021/09/02 04:45:08;;;;;;;9.27;1.88;;;21.50;78.70;;;;;;5107408;28;20036;-65
2021/09/02 04:50:59;;;;;;;7.38;1.85;;;21.50;78.20;;;;;;5042634;28;20472;-64
2021/09/02 04:53:27;;;;;;;6.05;2.08;;;21.50;78.50;;;;;;5103296;28;20101;-61
2021/09/02 04:55:55;;;;;;;14.85;1.90;;;21.60;77.80;;;;;;5096737;28;20775;-60
2021/09/02 04:58:25;;;;;;;7.78;2.10;;;21.50;77.70;;;;;;5104709;28;20069;-64
2021/09/02 05:01:12;;;;;;;8.02;2.05;;;21.50;77.80;;;;;;5109283;28;20024;-65
2021/09/02 05:03:39;;;;;;;10.63;2.08;;;21.40;78.60;;;;;;5102960;28;20088;-62
2021/09/02 05:06:09;;;;;;;8.25;2.60;;;21.40;78.10;;;;;;5099778;28;20032;-65
2021/09/02 05:08:37;;;;;;;5.82;2.00;;;21.40;78.60;;;;;;5104857;28;20091;-57
2021/09/02 05:11:04;;;;;;;5.80;1.85;;;21.50;78.70;;;;;;5112891;28;20024;-61
2021/09/02 05:13:32;;;;;;;8.88;1.63;;;21.40;78.20;;;;;;5113375;28;20011;-59
2021/09/02 05:16:00;;;;;;;8.68;1.65;;;21.40;78.10;;;;;;5112940;28;20047;-63
2021/09/02 05:18:28;;;;;;;8.13;1.60;;;21.40;78.70;;;;;;5113149;28;20012;-61
2021/09/02 05:20:56;;;;;;;8.52;1.75;;;21.30;78.80;;;;;;5097510;28;20028;-63
2021/09/02 05:23:23;;;;;;;10.85;2.35;;;21.40;78.80;;;;;;5092323;28;20028;-63
2021/09/02 05:25:51;;;;;;;13.80;2.30;;;21.30;79.20;;;;;;5089738;28;20040;-62
2021/09/02 05:28:19;;;;;;;11.18;2.33;;;21.30;79.00;;;;;;5092344;28;20020;-63
2021/09/02 05:30:47;;;;;;;10.55;2.38;;;21.30;79.10;;;;;;5092346;28;20024;-62
2021/09/02 05:33:15;;;;;;;6.20;1.73;;;21.40;78.80;;;;;;5092408;28;20022;-59
2021/09/02 05:35:42;;;;;;;9.65;2.15;;;21.30;79.10;;;;;;5091615;28;20070;-63
2021/09/02 05:38:13;;;;;;;7.05;2.05;;;21.30;78.80;;;;;;5090816;28;20020;-63
2021/09/02 05:40:41;;;;;;;8.55;2.63;;;21.30;78.80;;;;;;5091347;28;20441;-68
2021/09/02 05:43:11;;;;;;;6.32;2.33;;;21.30;78.90;;;;;;5091616;28;20028;-63
2021/09/02 05:45:41;;;;;;;10.13;2.38;;;21.20;78.90;;;;;;5091397;28;20475;-61
2021/09/02 05:48:09;;;;;;;8.65;2.05;;;21.20;79.40;;;;;;5072851;28;20051;-56
2021/09/02 05:50:37;;;;;;;9.45;2.22;;;21.30;79.80;;;;;;5091230;28;20056;-60
2021/09/02 05:53:04;;;;;;;15.48;3.13;;;21.40;79.80;;;;;;5091359;28;20040;-53
2021/09/02 05:55:32;;;;;;;21.45;2.75;;;21.50;79.70;;;;;;5094756;28;20114;-59
2021/09/02 05:57:59;;;;;;;20.13;3.38;;;21.50;79.50;;;;;;5111419;28;20035;-57
2021/09/02 06:00:27;;;;;;;14.70;2.75;;;21.40;80.10;;;;;;5093418;28;20031;-56
2021/09/02 06:03:00;;;;;;;11.48;2.35;;;21.40;80.10;;;;;;5093646;28;20123;-67
2021/09/02 06:05:28;;;;;;;11.60;2.80;;;21.40;79.60;;;;;;5111057;28;20032;-71
2021/09/02 06:07:56;;;;;;;19.08;3.05;;;21.30;80.30;;;;;;5111036;28;21194;-63
2021/09/02 06:10:24;;;;;;;7.63;2.10;;;21.20;80.80;;;;;;5110899;28;20073;-67
2021/09/02 06:13:14;;;;;;;;;;;;;;;;;;;;;
2021/09/02 06:15:42;;;;;;;12.73;2.55;;;21.10;80.50;;;;;;5111340;28;20028;-70
2021/09/02 06:18:09;;;;;;;18.67;2.53;;;20.90;80.90;;;;;;5110888;28;20023;-67
2021/09/02 06:20:40;;;;;;;10.80;2.30;;;20.90;81.30;;;;;;5110015;28;20023;-66
2021/09/02 06:23:07;;;;;;;13.82;2.85;;;20.90;81.60;;;;;;5110962;28;20031;-65
2021/09/02 06:25:35;;;;;;;15.65;2.70;;;20.80;81.60;;;;;;5111328;28;20028;-70
2021/09/02 06:28:02;;;;;;;12.00;2.28;;;20.80;81.70;;;;;;5111254;28;20050;-65
2021/09/02 06:30:30;;;;;;;10.48;2.33;;;20.70;81.70;;;;;;5111953;28;20027;-68
2021/09/02 06:32:58;;;;;;;9.52;2.55;;;20.60;81.80;;;;;;5093943;28;20033;-63
2021/09/02 06:35:25;;;;;;;11.73;2.75;;;20.60;82.30;;;;;;5108910;28;20031;-59
2021/09/02 06:37:53;;;;;;;11.35;2.42;;;20.60;82.40;;;;;;5103304;28;20030;-70
2021/09/02 06:40:20;;;;;;;10.68;2.70;;;20.50;82.30;;;;;;5096714;28;20026;-66
2021/09/02 06:42:48;;;;;;;14.18;3.17;;;20.50;82.70;;;;;;5116669;28;20035;-66
2021/09/02 06:45:17;;;;;;;13.65;3.80;;;20.50;82.60;;;;;;5114855;28;20027;-64
2021/09/02 06:47:48;;;;;;;8.35;1.83;;;20.40;82.50;;;;;;5110655;28;20022;-64
2021/09/02 06:50:16;;;;;;;13.75;2.17;;;20.40;82.80;;;;;;5092594;28;20465;-63
2021/09/02 06:52:44;;;;;;;9.57;2.55;;;20.40;83.00;;;;;;5110507;28;20110;-65
2021/09/02 06:55:12;;;;;;;13.35;2.78;;;20.30;83.30;;;;;;5110256;28;20023;-69
2021/09/02 06:57:40;;;;;;;7.60;1.95;;;20.30;83.50;;;;;;5110110;28;20039;-69
2021/09/02 07:00:09;;;;;;;12.90;2.42;;;20.20;83.50;;;;;;5110907;28;20103;-63
2021/09/02 07:02:36;;;;;;;8.40;2.30;;;20.20;83.70;;;;;;5110855;28;20028;-70
2021/09/02 07:05:06;;;;;;;11.88;2.03;;;20.10;83.70;;;;;;5110342;28;20035;-65
2021/09/02 07:07:34;;;;;;;8.38;1.75;;;20.10;83.80;;;;;;5110608;28;20704;-63
2021/09/02 07:10:01;;;;;;;9.73;2.42;;;20.10;84.10;;;;;;5091796;28;20047;-65
2021/09/02 07:12:29;;;;;;;8.60;2.67;;;20.10;84.10;;;;;;5110897;28;20128;-69
2021/09/02 07:14:57;;;;;;;8.45;2.10;;;20.10;84.40;;;;;;5110918;28;20012;-62
2021/09/02 07:17:24;;;;;;;10.68;2.70;;;20.00;84.30;;;;;;5111332;28;20027;-66
2021/09/02 07:19:51;;;;;;;11.77;2.72;;;20.00;84.30;;;;;;5111056;28;20028;-63
2021/09/02 07:22:19;;;;;;;15.60;2.50;;;20.00;84.60;;;;;;5110166;28;20439;-69
2021/09/02 07:24:47;;;;;;;11.93;2.40;;;19.90;84.60;;;;;;5090638;28;20036;-64
2021/09/02 07:27:14;;;;;;;12.52;3.22;;;19.90;84.80;;;;;;5110058;28;20039;-64
2021/09/02 07:29:42;;;;;;;29.60;4.25;;;19.80;84.90;;;;;;5091224;28;20398;-66
2021/09/02 07:32:10;;;;;;;13.13;2.55;;;19.80;85.20;;;;;;5110150;28;20066;-66
2021/09/02 07:34:38;;;;;;;12.48;2.67;;;19.80;85.30;;;;;;5091617;28;20118;-64
2021/09/02 07:37:05;;;;;;;5.78;2.00;;;19.70;85.60;;;;;;5091711;28;20439;-63
2021/09/02 07:39:33;;;;;;;7.10;1.77;;;19.60;85.80;;;;;;5110173;28;20537;-64
2021/09/02 07:42:00;;;;;;;6.50;1.92;;;19.60;85.80;;;;;;5110270;28;20044;-66
2021/09/02 07:44:28;;;;;;;6.63;1.70;;;19.60;85.90;;;;;;5091592;28;20478;-66
2021/09/02 07:46:55;;;;;;;7.75;1.75;;;19.50;86.30;;;;;;5109687;28;20028;-66
2021/09/02 07:49:23;;;;;;;7.55;2.55;;;19.60;86.60;;;;;;5109573;28;20027;-68
2021/09/02 07:51:50;;;;;;;7.25;2.00;;;19.50;86.60;;;;;;5109854;28;20146;-71
2021/09/02 07:54:18;;;;;;;11.20;2.03;;;19.50;86.60;;;;;;5109780;28;20486;-66
2021/09/02 07:56:45;;;;;;;7.90;2.17;;;19.50;86.90;;;;;;5109498;28;20023;-74
2021/09/02 07:59:13;;;;;;;11.60;2.30;;;19.50;87.00;;;;;;5109410;28;20055;-65
2021/09/02 08:01:40;;;;;;;8.73;2.13;;;19.40;87.10;;;;;;5100444;28;20484;-69
2021/09/02 08:04:08;;;;;;;9.27;2.70;;;19.40;87.10;;;;;;5093642;28;20466;-77
2021/09/02 08:06:35;;;;;;;7.30;1.83;;;19.40;87.60;;;;;;5093470;28;20109;-68
2021/09/02 08:09:03;;;;;;;8.73;2.03;;;19.40;87.40;;;;;;5093785;28;20020;-70
2021/09/02 08:11:31;;;;;;;11.80;2.38;;;19.40;87.60;;;;;;5093805;28;20024;-69
2021/09/02 08:13:59;;;;;;;7.93;1.75;;;19.30;87.50;;;;;;5093707;28;20055;-73
2021/09/02 08:16:27;;;;;;;10.93;2.80;;;19.30;87.50;;;;;;5076573;28;20085;-67
2021/09/02 08:18:57;;;;;;;10.38;2.55;;;19.30;88.00;;;;;;5090140;28;20300;-60
2021/09/02 08:21:26;;;;;;;11.88;2.17;;;19.30;87.90;;;;;;5108118;28;20029;-71
2021/09/02 08:23:55;;;;;;;9.88;2.13;;;19.30;87.70;;;;;;5108871;28;20073;-70
2021/09/02 08:26:26;;;;;;;12.32;2.15;;;19.20;88.00;;;;;;5107077;28;20076;-67
2021/09/02 08:28:54;;;;;;;6.72;2.03;;;19.20;88.10;;;;;;5110730;28;20024;-65
2021/09/02 08:31:22;;;;;;;8.65;1.77;;;19.20;88.40;;;;;;5089816;28;20434;-71
2021/09/02 08:33:49;;;;;;;8.18;2.13;;;19.20;88.30;;;;;;5112236;28;20024;-69
2021/09/02 08:36:17;;;;;;;8.27;1.98;;;19.20;88.30;;;;;;5109138;28;20058;-72
2021/09/02 08:38:47;;;;;;;6.03;1.98;;;19.20;88.20;;;;;;5090284;28;20031;-73
2021/09/02 08:41:19;;;;;;;11.20;2.33;;;19.20;88.20;;;;;;5107362;28;20105;-66
2021/09/02 08:43:48;;;;;;;11.88;2.30;;;19.30;88.30;;;;;;5107957;28;20397;-70
2021/09/02 08:46:15;;;;;;;7.35;1.80;;;19.20;88.20;;;;;;5086617;28;20036;-73
2021/09/02 08:48:48;;;;;;;6.88;2.17;;;19.20;88.30;;;;;;5098678;28;20028;-65
2021/09/02 08:51:17;;;;;;;6.55;1.80;;;19.20;88.20;;;;;;5107106;28;20500;-63
2021/09/02 08:53:48;;;;;;;8.15;1.73;;;19.20;88.20;;;;;;5103956;28;20381;-69
2021/09/02 08:56:15;;;;;;;8.27;2.78;;;19.20;88.20;;;;;;5085103;28;20028;-67
2021/09/02 08:58:42;;;;;;;7.10;2.00;;;19.20;88.20;;;;;;5094209;28;20412;-63
2021/09/02 09:01:11;;;;;;;11.60;2.45;;;19.20;88.20;;;;;;5111332;28;20494;-68
2021/09/02 09:03:38;;;;;;;6.63;2.50;;;19.20;88.20;;;;;;5107391;28;20073;-65
2021/09/02 09:06:09;;;;;;;10.55;1.70;;;19.20;88.20;;;;;;5105736;28;20081;-66
2021/09/02 09:08:41;;;;;;;6.88;1.83;;;19.20;88.10;;;;;;5096152;28;20465;-69
2021/09/02 09:11:21;;;;;;;9.13;1.90;;;19.20;88.10;;;;;;5101783;28;20076;-75
2021/09/02 09:14:04;;;;;;;9.55;1.85;;;19.20;88.10;;;;;;5112887;28;20042;-67
2021/09/02 09:16:46;;;;;;;6.65;1.58;;;19.10;88.10;;;;;;5100167;28;20415;-67
2021/09/02 09:19:35;;;;;;;9.02;2.42;;;19.10;88.20;;;;;;5100441;28;20032;-65
2021/09/02 09:22:05;;;;;;;7.45;2.33;;;19.10;88.20;;;;;;5106828;28;20386;-65
2021/09/02 09:24:54;;;;;;;7.78;2.25;;;19.10;88.20;;;;;;5108719;28;20039;-64
2021/09/02 09:27:43;;;;;;;5.22;1.80;;;19.10;88.10;;;;;;5081639;28;20509;-70
2021/09/02 09:30:19;;;;;;;4.30;1.58;;;19.10;88.10;;;;;;5103471;28;20030;-62
2021/09/02 09:32:55;;;;;;;10.30;1.90;;;19.10;88.10;;;;;;5092057;28;20386;-72
2021/09/02 09:35:28;;;;;;;8.07;2.15;;;19.10;88.10;;;;;;5112584;28;20440;-71
2021/09/02 09:38:18;;;;;;;6.78;1.98;;;19.10;88.10;;;;;;5101852;28;20351;-67
2021/09/02 09:40:48;;;;;;;9.95;2.67;;;19.10;88.10;;;;;;5108788;28;20035;-68
2021/09/02 09:43:20;;;;;;;13.70;2.65;;;19.10;88.10;;;;;;5106681;28;20034;-64
2021/09/02 09:45:52;;;;;;;8.82;2.47;;;19.10;88.10;;;;;;5106622;28;20035;-67
2021/09/02 09:48:31;;;;;;;9.93;2.07;;;19.10;88.10;;;;;;5083746;28;20077;-68
2021/09/02 09:51:18;;;;;;;11.10;2.30;;;19.10;88.10;;;;;;5092968;28;20280;-67
2021/09/02 09:53:48;;;;;;;5.97;1.80;;;19.10;88.20;;;;;;5090084;28;20513;-64
2021/09/02 09:56:19;;;;;;;7.63;2.13;;;19.10;88.20;;;;;;5091011;28;20031;-66
2021/09/02 09:58:48;;;;;;;10.63;1.95;;;19.10;88.20;;;;;;5071559;28;20685;-66
2021/09/02 10:01:16;;;;;;;8.38;2.00;;;19.10;88.30;;;;;;5112595;28;20038;-67
2021/09/02 10:03:50;;;;;;;8.60;2.53;;;19.00;88.20;;;;;;5106922;28;20029;-53
2021/09/02 10:06:22;;;;;;;11.10;3.70;;;19.10;88.30;;;;;;5107250;28;20032;-56
2021/09/02 10:08:50;;;;;;;6.50;2.53;;;19.10;88.40;;;;;;5087444;28;20375;-62
2021/09/02 10:11:17;;;;;;;7.60;1.80;;;19.00;88.20;;;;;;5110332;28;20024;-65
2021/09/02 10:13:45;;;;;;;5.53;2.28;;;19.10;88.30;;;;;;5087650;28;20032;-61
2021/09/02 10:16:13;;;;;;;8.35;2.25;;;19.00;88.20;;;;;;5107645;28;20470;-68
2021/09/02 10:18:48;;;;;;;9.27;2.40;;;19.00;88.30;;;;;;5102355;28;20497;-67
2021/09/02 10:21:16;;;;;;;11.27;2.33;;;19.00;88.30;;;;;;5106210;28;20029;-62
2021/09/02 10:23:45;;;;;;;5.38;1.75;;;19.00;88.20;;;;;;5066546;28;20117;-66
2021/09/02 10:26:34;;;;;;;11.25;2.35;;;19.00;88.30;;;;;;5109997;28;20027;-63
2021/09/02 10:29:21;;;;;;;7.00;2.15;;;19.00;88.30;;;;;;5102998;28;20028;-60
2021/09/02 10:31:49;;;;;;;6.25;1.60;;;19.00;88.10;;;;;;5094234;28;20020;-68
2021/09/02 10:34:32;;;;;;;7.63;2.03;;;19.00;88.30;;;;;;5109325;28;20028;-69
2021/09/02 10:36:59;;;;;;;10.50;1.67;;;19.00;88.30;;;;;;5092105;28;20111;-69
2021/09/02 10:39:43;;;;;;;10.13;2.10;;;19.00;88.30;;;;;;5108322;28;20028;-67
2021/09/02 10:42:10;;;;;;;9.60;2.33;;;19.00;88.20;;;;;;5107419;28;20048;-64
2021/09/02 10:44:50;;;;;;;7.03;1.88;;;19.00;88.20;;;;;;5108460;28;20557;-66
2021/09/02 10:47:19;;;;;;;6.20;2.03;;;19.00;88.20;;;;;;5097738;28;20074;-70
2021/09/02 10:50:01;;;;;;;6.68;2.08;;;19.00;88.20;;;;;;5082307;28;20420;-63
2021/09/02 10:52:30;;;;;;;9.68;2.00;;;18.90;88.10;;;;;;5105031;28;20363;-63
2021/09/02 10:55:29;;;;;;;7.82;1.80;;;19.00;88.10;;;;;;5108747;28;20012;-61
2021/09/02 10:58:01;;;;;;;5.18;1.48;;;19.00;88.10;;;;;;5102156;28;20031;-64
2021/09/02 11:00:35;;;;;;;6.38;1.50;;;18.90;88.00;;;;;;5106048;28;20586;-60
2021/09/02 11:03:15;;;;;;;5.97;1.98;;;19.00;88.10;;;;;;5108418;28;20016;-66
2021/09/02 11:05:44;;;;;;;8.63;2.45;;;19.00;88.10;;;;;;5105921;28;20036;-55
2021/09/02 11:08:12;;;;;;;10.88;2.47;;;18.90;88.00;;;;;;5100339;28;20028;-58
2021/09/02 11:10:39;;;;;;;9.23;2.28;;;18.90;88.00;;;;;;5109215;28;20015;-65
2021/09/02 11:13:11;;;;;;;6.90;1.85;;;18.90;88.10;;;;;;5108379;28;20432;-60
2021/09/02 11:15:39;;;;;;;4.80;1.70;;;18.90;88.10;;;;;;5104489;28;20111;-59
2021/09/02 11:18:07;;;;;;;5.82;1.90;;;18.90;88.00;;;;;;5101976;28;20019;-66
2021/09/02 11:20:35;;;;;;;9.63;2.05;;;18.90;88.00;;;;;;5107867;28;20068;-65
2021/09/02 11:23:16;;;;;;;6.63;1.52;;;18.90;88.00;;;;;;5108204;28;20035;-62
2021/09/02 11:25:54;;;;;;;8.93;2.20;;;18.90;88.00;;;;;;5107894;28;20115;-58
2021/09/02 11:28:23;;;;;;;7.28;1.90;;;18.90;88.00;;;;;;5089561;28;20084;-62
2021/09/02 11:30:52;;;;;;;8.65;1.50;;;18.90;88.00;;;;;;5109603;28;20081;-67
2021/09/02 11:33:20;;;;;;;6.75;1.73;;;18.90;88.00;;;;;;5104457;28;21184;-64
2021/09/02 11:35:59;;;;;;;4.85;1.60;;;18.90;88.00;;;;;;5089754;28;20024;-63
2021/09/02 11:38:28;;;;;;;7.38;2.08;;;18.90;88.10;;;;;;5094677;28;20032;-67
2021/09/02 11:41:06;;;;;;;6.65;2.60;;;18.90;88.00;;;;;;5112365;28;20101;-66
2021/09/02 11:43:40;;;;;;;8.38;2.03;;;18.90;88.00;;;;;;5113259;28;20028;-64
2021/09/02 11:46:08;;;;;;;6.63;2.25;;;18.80;87.90;;;;;;5065377;28;20398;-63
2021/09/02 11:48:50;;;;;;;7.93;1.80;;;18.80;87.90;;;;;;5095364;28;20123;-61
2021/09/02 11:51:32;;;;;;;8.27;2.85;;;18.90;88.00;;;;;;5112249;28;20031;-61
2021/09/02 11:54:18;;;;;;;7.00;2.28;;;18.90;88.00;;;;;;5112828;28;20050;-63
2021/09/02 11:56:46;;;;;;;7.18;1.55;;;18.80;88.00;;;;;;5103117;28;20032;-64
2021/09/02 11:59:13;;;;;;;9.40;2.15;;;18.80;88.00;;;;;;5103984;28;20111;-62
2021/09/02 12:01:44;;;;;;;6.88;1.95;;;18.80;87.90;;;;;;5113567;28;20103;-69
2021/09/02 12:04:26;;;;;;;7.88;2.15;;;18.80;88.00;;;;;;5098089;28;20035;-67
2021/09/02 12:06:59;;;;;;;4.80;1.83;;;18.80;88.00;;;;;;5108350;28;20416;-64
2021/09/02 12:09:31;;;;;;;8.73;1.65;;;18.70;88.10;;;;;;5108771;28;20670;-62
2021/09/02 12:12:08;;;;;;;4.88;1.58;;;18.70;88.10;;;;;;5090452;28;20030;-59
2021/09/02 12:14:42;;;;;;;7.28;1.63;;;18.70;88.10;;;;;;5108973;28;20020;-64
2021/09/02 12:17:12;;;;;;;4.75;1.58;;;18.70;88.30;;;;;;5108779;28;20103;-69
2021/09/02 12:19:56;;;;;;;6.30;2.00;;;18.60;88.20;;;;;;5107412;28;20024;-66
2021/09/02 12:22:35;;;;;;;3.63;1.25;;;18.60;88.40;;;;;;5108952;28;20019;-63
2021/09/02 12:25:12;;;;;;;4.15;1.30;;;18.60;88.30;;;;;;5108747;28;20039;-65
2021/09/02 12:27:54;;;;;;;6.78;2.08;;;18.60;88.30;;;;;;5109005;28;20030;-71
2021/09/02 12:30:43;;;;;;;4.13;1.48;;;18.60;88.30;;;;;;5109122;28;20024;-72
2021/09/02 12:33:16;;;;;;;4.38;1.40;;;18.60;88.50;;;;;;5058648;28;20489;-66
2021/09/02 12:35:46;;;;;;;4.88;1.67;;;18.60;88.50;;;;;;5090857;28;20327;-75
2021/09/02 12:38:34;;;;;;;7.65;2.00;;;18.60;88.50;;;;;;5109087;28;20020;-70
2021/09/02 12:41:21;;;;;;;7.85;1.73;;;18.50;88.50;;;;;;5108700;28;20040;-69
2021/09/02 12:44:26;;;;;;;6.45;1.85;;;18.50;88.50;;;;;;5090733;28;20076;-63
2021/09/02 12:47:18;;;;;;;3.35;1.00;;;18.50;88.50;;;;;;5057957;28;20081;-74
2021/09/02 12:49:48;;;;;;;6.32;1.67;;;18.50;88.60;;;;;;5090787;28;20164;-65
2021/09/02 12:52:25;;;;;;;6.55;1.83;;;18.50;88.70;;;;;;5109730;28;20038;-65
2021/09/02 12:55:04;;;;;;;5.07;1.55;;;18.50;88.50;;;;;;5110219;28;20028;-65
2021/09/02 12:57:39;;;;;;;9.73;1.60;;;18.40;88.50;;;;;;5109181;28;20513;-66
2021/09/02 13:00:20;;;;;;;8.32;1.88;;;18.50;88.50;;;;;;5108108;28;20482;-70
2021/09/02 13:02:50;;;;;;;8.55;2.33;;;18.40;88.30;;;;;;5108174;28;20119;-72
2021/09/02 13:05:21;;;;;;;11.10;2.13;;;18.40;88.30;;;;;;5089273;28;20039;-69
2021/09/02 13:07:55;;;;;;;5.68;1.52;;;18.40;88.30;;;;;;5087449;28;21336;-68
2021/09/02 13:10:31;;;;;;;6.97;1.95;;;18.40;88.30;;;;;;5092514;28;20090;-61